Time;durP1;ratioP1;P1;durP2;ratioP2;P2;SDS_P1;SDS_P2;PMS_P1;PMS_P2;Temp;Humidity;BMP_temperature;BMP_pressure;BME280_temperature;BME280_humidity;BME280_pressure;Samples;Min_cycle;Max_cycle;Signal;HPM_P1;HPM_P2
2022/03/25 00:02:06;;;;;;;1.40;1.17;;;18.10;28.90;20.70;94683.00;;;;10399910;28;48162;-65
2022/03/25 00:07:07;;;;;;;1.25;0.90;;;18.10;28.90;20.70;94684.00;;;;10399196;28;47854;-65
2022/03/25 00:12:08;;;;;;;1.27;1.10;;;18.10;28.90;20.60;94674.00;;;;10399491;28;47995;-65
2022/03/25 00:17:09;;;;;;;1.40;1.00;;;18.00;28.90;20.60;94680.00;;;;10399088;28;48181;-65
2022/03/25 00:22:10;;;;;;;1.55;0.93;;;18.00;28.90;20.60;94685.00;;;;10415959;28;46722;-65
2022/03/25 00:27:11;;;;;;;1.83;1.20;;;18.00;29.00;20.60;94674.00;;;;10398186;28;47371;-65
2022/03/25 00:32:11;;;;;;;1.50;1.17;;;18.00;29.00;20.60;94681.00;;;;10415989;28;45225;-65
2022/03/25 00:37:12;;;;;;;1.48;1.17;;;18.00;28.90;20.60;94661.00;;;;10398229;28;48360;-65
2022/03/25 00:42:13;;;;;;;1.33;0.90;;;18.00;29.00;20.50;94672.00;;;;10398607;28;47143;-65
2022/03/25 00:47:14;;;;;;;1.42;0.80;;;17.90;28.90;20.50;94663.00;;;;10397534;28;47439;-65
2022/03/25 00:52:16;;;;;;;1.42;1.10;;;17.90;28.90;20.50;94661.00;;;;10414034;28;45298;-65
2022/03/25 00:57:17;;;;;;;1.27;0.90;;;17.90;28.90;20.50;94667.00;;;;10397727;28;47962;-65
2022/03/25 01:02:18;;;;;;;1.10;0.90;;;17.90;28.90;20.50;94647.00;;;;10397864;28;47441;-65
2022/03/25 01:07:18;;;;;;;1.30;0.90;;;17.90;29.00;20.50;94660.00;;;;10397779;28;45190;-65
2022/03/25 01:12:21;;;;;;;1.15;1.00;;;17.90;28.90;20.50;94661.00;;;;10396954;28;48072;-65
2022/03/25 01:17:22;;;;;;;2.08;1.10;;;17.80;28.90;20.50;94645.00;;;;10398246;28;45329;-65
2022/03/25 01:22:22;;;;;;;1.40;0.90;;;17.80;28.90;20.40;94648.00;;;;10397161;28;47165;-66
2022/03/25 01:27:23;;;;;;;1.55;1.05;;;17.80;29.00;20.40;94646.00;;;;10397634;28;45257;-65
2022/03/25 01:32:24;;;;;;;1.60;1.00;;;17.80;28.90;20.40;94632.00;;;;10413859;28;45435;-66
2022/03/25 01:37:25;;;;;;;1.63;1.00;;;17.70;29.00;20.40;94650.00;;;;10396117;28;48248;-66
2022/03/25 01:42:34;;;;;;;1.70;1.10;;;17.70;29.00;20.40;94631.00;;;;10379910;28;46295;-65
2022/03/25 01:47:35;;;;;;;1.75;1.00;;;17.70;28.90;20.30;94638.00;;;;10412718;28;45316;-65
2022/03/25 01:52:36;;;;;;;1.85;1.02;;;17.70;28.90;20.30;94641.00;;;;10412982;28;45465;-65
2022/03/25 01:57:36;;;;;;;1.27;1.00;;;17.70;29.00;20.30;94641.00;;;;10394284;28;47368;-66
2022/03/25 02:02:39;;;;;;;1.10;0.90;;;17.70;29.00;20.30;94640.00;;;;10389667;28;47560;-65
2022/03/25 02:07:40;;;;;;;1.25;1.00;;;17.70;29.00;20.30;94628.00;;;;10411010;28;45292;-65
2022/03/25 02:12:41;;;;;;;1.40;1.13;;;17.70;29.00;20.30;94633.00;;;;10395543;28;48106;-65
2022/03/25 02:17:41;;;;;;;1.50;1.02;;;17.60;29.00;20.30;94639.00;;;;10394976;28;47031;-65
2022/03/25 02:22:42;;;;;;;1.20;0.98;;;17.60;29.00;20.30;94631.00;;;;10395315;28;47611;-65
2022/03/25 02:27:43;;;;;;;1.60;1.00;;;17.60;29.00;20.30;94620.00;;;;10416663;22;48427;-63
2022/03/25 02:32:44;;;;;;;1.13;0.93;;;17.60;29.00;20.30;94608.00;;;;10391095;28;45596;-63
2022/03/25 02:37:45;;;;;;;1.27;1.00;;;17.60;29.00;20.20;94625.00;;;;10407279;28;46396;-65
2022/03/25 02:42:45;;;;;;;1.42;1.05;;;17.60;29.00;20.20;94630.00;;;;10435925;28;46905;-63
2022/03/25 02:47:46;;;;;;;1.67;1.00;;;17.60;29.00;20.20;94638.00;;;;10436473;28;46726;-63
2022/03/25 02:52:47;;;;;;;0.80;0.80;;;17.60;29.00;20.20;94631.00;;;;10435846;28;46913;-63
2022/03/25 02:57:48;;;;;;;1.20;0.85;;;17.60;29.00;20.20;94615.00;;;;10436834;28;45547;-62
2022/03/25 03:02:48;;;;;;;1.27;1.02;;;17.60;29.00;20.20;94626.00;;;;10436813;28;46401;-63
2022/03/25 03:07:50;;;;;;;1.35;1.00;;;17.60;29.00;20.20;94625.00;;;;10434701;28;46985;-63
2022/03/25 03:12:52;;;;;;;0.98;0.80;;;17.60;29.00;20.20;94631.00;;;;10435128;28;46990;-62
2022/03/25 03:17:52;;;;;;;1.73;1.13;;;17.60;29.00;20.20;94626.00;;;;10433852;28;47303;-62
2022/03/25 03:22:55;;;;;;;1.10;0.98;;;17.50;29.00;20.10;94607.00;;;;10435251;28;46605;-63
2022/03/25 03:27:56;;;;;;;1.45;1.05;;;17.50;29.00;20.10;94631.00;;;;10434349;28;46925;-62
2022/03/25 03:32:58;;;;;;;1.42;1.15;;;17.50;29.10;20.10;94623.00;;;;10434435;28;47421;-63
2022/03/25 03:37:58;;;;;;;1.25;1.00;;;17.50;29.00;20.10;94619.00;;;;10434173;28;45588;-63
2022/03/25 03:42:59;;;;;;;1.30;1.10;;;17.50;29.00;20.10;94608.00;;;;10434491;28;45397;-62
2022/03/25 03:48:00;;;;;;;1.20;1.05;;;17.50;29.00;20.10;94606.00;;;;10434043;28;48322;-63
2022/03/25 03:53:01;;;;;;;1.42;1.13;;;17.50;29.10;20.10;94607.00;;;;10433772;28;45188;-63
2022/03/25 03:58:02;;;;;;;1.50;1.02;;;17.50;29.10;20.10;94607.00;;;;10434883;28;45285;-62
2022/03/25 04:03:02;;;;;;;1.30;1.00;;;17.40;29.00;20.10;94603.00;;;;10434009;28;46224;-63
2022/03/25 04:08:04;;;;;;;2.10;1.20;;;17.40;29.10;20.10;94599.00;;;;10416516;28;48123;-63
2022/03/25 04:13:04;;;;;;;1.55;1.15;;;17.40;29.00;20.00;94615.00;;;;10434929;28;47007;-63
2022/03/25 04:18:05;;;;;;;1.67;1.30;;;17.50;29.10;20.00;94607.00;;;;10433275;28;47379;-63
2022/03/25 04:23:06;;;;;;;1.98;1.20;;;17.40;29.10;20.00;94621.00;;;;10433186;28;45954;-63
2022/03/25 04:28:07;;;;;;;2.08;1.30;;;17.40;29.10;20.00;94620.00;;;;10436531;28;45469;-62
2022/03/25 04:33:08;;;;;;;1.40;1.00;;;17.40;29.10;20.00;94620.00;;;;10440284;28;46337;-63
2022/03/25 04:38:09;;;;;;;2.65;1.30;;;17.40;29.10;20.00;94616.00;;;;10440011;28;45187;-63
2022/03/25 04:43:09;;;;;;;1.33;1.00;;;17.40;29.10;20.00;94613.00;;;;10440140;28;46203;-63
2022/03/25 04:48:11;;;;;;;1.60;1.20;;;17.40;29.10;20.00;94609.00;;;;10440834;28;45404;-63
2022/03/25 04:53:12;;;;;;;2.05;1.50;;;17.30;29.10;19.90;94605.00;;;;10439677;28;47461;-63
2022/03/25 04:58:12;;;;;;;2.03;1.10;;;17.30;29.00;20.00;94609.00;;;;10438672;28;47380;-63
2022/03/25 05:03:13;;;;;;;1.83;1.20;;;17.30;29.10;19.90;94615.00;;;;10439601;28;45272;-63
2022/03/25 05:08:15;;;;;;;1.50;1.02;;;17.30;29.10;20.00;94620.00;;;;10440262;28;46578;-63
2022/03/25 05:13:16;;;;;;;1.40;1.00;;;17.40;29.20;20.10;94625.00;;;;10439197;28;45506;-64
2022/03/25 05:18:17;;;;;;;1.52;1.05;;;17.60;29.00;20.20;94626.00;;;;10439958;28;45147;-63
2022/03/25 05:23:18;;;;;;;2.22;1.13;;;17.70;29.00;20.20;94620.00;;;;10438645;28;47750;-63
2022/03/25 05:28:19;;;;;;;1.80;1.30;;;17.70;28.90;20.20;94631.00;;;;10439222;28;45357;-63
2022/03/25 05:33:19;;;;;;;1.60;1.15;;;17.80;29.10;20.30;94634.00;;;;10438889;28;45679;-63
2022/03/25 05:38:20;;;;;;;1.60;1.10;;;17.80;28.90;20.30;94635.00;;;;10420997;28;46971;-63
2022/03/25 05:43:21;;;;;;;1.98;1.20;;;17.90;28.80;20.30;94644.00;;;;10438296;28;46570;-63
2022/03/25 05:48:21;;;;;;;1.75;1.17;;;17.90;28.90;20.40;94634.00;;;;10437227;28;48401;-63
2022/03/25 05:53:22;;;;;;;2.38;1.20;;;17.90;28.80;20.40;94652.00;;;;10439210;28;45540;-63
2022/03/25 05:58:23;;;;;;;1.45;1.15;;;18.00;28.80;20.40;94638.00;;;;10437245;28;46470;-63
2022/03/25 06:03:23;;;;;;;1.90;1.25;;;18.00;28.80;20.50;94636.00;;;;10437336;28;47259;-62
2022/03/25 06:08:24;;;;;;;1.75;1.35;;;18.00;28.70;20.50;94649.00;;;;10419887;28;47320;-63
2022/03/25 06:13:28;;;;;;;1.92;1.27;;;18.10;28.80;20.50;94635.00;;;;10436869;28;45189;-63
2022/03/25 06:18:29;;;;;;;2.05;1.33;;;18.10;28.70;20.60;94644.00;;;;10420189;28;47238;-63
2022/03/25 06:23:29;;;;;;;2.00;1.50;;;18.10;28.70;20.60;94642.00;;;;10436905;28;47025;-63
2022/03/25 06:28:31;;;;;;;1.75;1.40;;;18.10;28.60;20.60;94641.00;;;;10437279;28;45388;-63
2022/03/25 06:33:32;;;;;;;2.38;1.52;;;18.20;28.60;20.60;94645.00;;;;10420096;28;48247;-63
2022/03/25 06:38:32;;;;;;;1.63;1.30;;;18.10;28.50;20.60;94655.00;;;;10435631;28;47250;-63
2022/03/25 06:43:34;;;;;;;2.47;1.90;;;18.20;28.50;20.60;94659.00;;;;10436144;28;45285;-63
2022/03/25 06:48:35;;;;;;;2.90;1.60;;;18.20;28.50;20.70;94664.00;;;;10435110;28;47077;-64
2022/03/25 06:53:36;;;;;;;2.25;1.40;;;18.20;28.40;20.70;94661.00;;;;10435763;28;47178;-63
2022/03/25 06:58:37;;;;;;;1.92;1.50;;;18.20;28.40;20.70;94651.00;;;;10435234;28;45443;-63
2022/03/25 07:03:38;;;;;;;2.65;1.50;;;18.20;28.40;20.70;94657.00;;;;10436917;28;45203;-63
2022/03/25 07:08:40;;;;;;;1.95;1.50;;;18.20;28.30;20.70;94653.00;;;;10435275;28;45701;-63
2022/03/25 07:13:41;;;;;;;1.90;1.52;;;18.20;28.30;20.70;94664.00;;;;10435198;28;48456;-63
2022/03/25 07:18:41;;;;;;;4.00;1.90;;;18.20;28.30;20.70;94664.00;;;;10435585;28;45268;-63
2022/03/25 07:23:43;;;;;;;1.85;1.45;;;18.20;28.30;20.70;94672.00;;;;10433470;28;46772;-63
2022/03/25 07:28:44;;;;;;;3.35;1.77;;;18.20;28.30;20.70;94661.00;;;;10433640;28;46364;-63
2022/03/25 07:33:45;;;;;;;3.50;1.80;;;18.30;28.30;20.70;94663.00;;;;10434970;28;45350;-63
2022/03/25 07:38:45;;;;;;;2.05;1.42;;;18.30;28.30;20.80;94665.00;;;;10434280;28;46510;-63
2022/03/25 07:43:46;;;;;;;3.78;1.92;;;18.30;28.30;20.80;94683.00;;;;10417971;28;47543;-63
2022/03/25 07:48:47;;;;;;;3.15;1.90;;;18.30;28.30;20.80;94688.00;;;;10433876;28;45412;-66
2022/03/25 07:53:47;;;;;;;4.25;2.60;;;18.30;28.40;20.70;94681.00;;;;10435617;28;45170;-63
2022/03/25 07:58:48;;;;;;;5.22;2.70;;;18.20;28.50;20.70;94690.00;;;;10433885;28;45562;-63
2022/03/25 08:03:49;;;;;;;6.30;2.75;;;18.20;28.50;20.70;94680.00;;;;10438476;28;48296;-63
2022/03/25 08:08:50;;;;;;;3.83;2.60;;;18.20;28.40;20.70;94678.00;;;;10442168;28;45246;-63
2022/03/25 08:13:51;;;;;;;4.43;2.60;;;18.20;28.50;20.70;94680.00;;;;10440002;28;47309;-63
2022/03/25 08:18:52;;;;;;;6.55;2.47;;;18.20;28.50;20.80;94694.00;;;;10439700;28;47060;-63
2022/03/25 08:29:12;;;;;;;4.97;2.05;;;18.30;28.60;20.80;94683.00;;;;10439898;28;45616;-63
2022/03/25 08:34:15;;;;;;;2.10;1.63;;;18.30;28.70;20.80;94684.00;;;;10438562;28;47076;-63
2022/03/25 08:39:17;;;;;;;2.25;1.70;;;18.30;28.70;20.80;94691.00;;;;10439502;28;46987;-63
2022/03/25 08:44:18;;;;;;;1.98;1.40;;;18.30;28.80;20.80;94678.00;;;;10440100;28;45430;-63
2022/03/25 08:49:18;;;;;;;1.98;1.50;;;18.30;28.90;20.80;94697.00;;;;10440970;28;46425;-63
2022/03/25 08:54:19;;;;;;;3.30;1.63;;;18.30;29.00;20.80;94701.00;;;;10439462;28;48251;-63
2022/03/25 08:59:20;;;;;;;1.95;1.40;;;18.30;29.00;20.80;94699.00;;;;10439613;28;46617;-63
2022/03/25 09:04:20;;;;;;;2.60;1.60;;;18.30;29.10;20.80;94706.00;;;;10439475;28;45394;-63
2022/03/25 09:09:21;;;;;;;3.50;1.90;;;18.30;29.20;20.80;94696.00;;;;10439133;28;45709;-62
2022/03/25 09:14:23;;;;;;;2.50;1.60;;;18.30;30.10;20.70;94709.00;;;;10421164;28;45424;-63
2022/03/25 09:19:23;;;;;;;7.35;1.90;;;18.20;30.50;20.70;94701.00;;;;10398379;28;45296;-62
2022/03/25 09:24:24;;;;;;;2.22;1.45;;;18.20;30.50;20.70;94693.00;;;;10413940;28;45427;-62
2022/03/25 09:29:25;;;;;;;4.50;1.70;;;18.20;30.70;20.70;94688.00;;;;10397625;28;45478;-62
2022/03/25 09:39:45;;;;;;;3.95;1.70;;;18.20;30.30;20.70;94696.00;;;;10430272;28;45681;-65
2022/03/25 09:44:48;;;;;;;3.92;1.60;;;18.20;31.70;20.70;94692.00;;;;10439046;28;45566;-62
2022/03/25 09:49:51;;;;;;;3.67;1.55;;;18.30;31.40;20.80;94697.00;;;;10413011;28;46546;-62
2022/03/25 09:54:52;;;;;;;2.58;1.50;;;18.30;31.70;20.80;94698.00;;;;10418363;28;48570;-65
2022/03/25 09:59:53;;;;;;;4.32;1.70;;;18.30;32.10;20.70;94683.00;;;;10434842;28;47492;-65
2022/03/25 10:04:55;;;;;;;2.35;1.50;;;18.30;32.20;20.70;94678.00;;;;10424930;28;47216;-66
2022/03/25 10:10:13;;;;;;;2.45;1.65;;;18.30;32.20;20.70;94681.00;;;;10424498;28;45273;-65
2022/03/25 10:15:23;;;;;;;2.88;1.70;;;18.30;32.40;20.70;94683.00;;;;10406384;28;45424;-64
2022/03/25 10:20:32;;;;;;;2.58;1.35;;;18.30;32.60;20.80;94675.00;;;;10418144;28;47806;-65
2022/03/25 10:25:49;;;;;;;2.97;1.48;;;18.30;32.60;20.80;94680.00;;;;10411756;28;45430;-65
2022/03/25 10:30:52;;;;;;;3.78;2.00;;;18.30;32.20;20.80;94679.00;;;;10412013;28;45119;-63
2022/03/25 10:35:58;;;;;;;3.50;2.03;;;18.40;32.50;20.80;94677.00;;;;10423656;28;45507;-63
2022/03/25 10:40:59;;;;;;;3.30;2.00;;;18.30;33.80;20.80;94672.00;;;;10417147;28;46775;-65
2022/03/25 10:45:59;;;;;;;6.50;1.90;;;18.30;34.30;20.90;94668.00;;;;10411207;28;47013;-63
2022/03/25 10:51:07;;;;;;;4.68;2.30;;;18.40;33.30;20.90;94660.00;;;;10406925;28;47063;-65
2022/03/25 10:56:12;;;;;;;4.95;2.88;;;18.40;33.60;20.90;94655.00;;;;10426954;28;46413;-66
2022/03/25 11:01:12;;;;;;;3.97;2.40;;;18.40;32.50;20.90;94670.00;;;;10427298;28;47161;-67
2022/03/25 11:06:17;;;;;;;4.72;2.92;;;18.40;33.40;20.80;94657.00;;;;10428505;28;47186;-67
2022/03/25 11:11:18;;;;;;;4.97;2.53;;;18.40;33.50;20.80;94669.00;;;;10422592;28;47051;-67
2022/03/25 11:16:19;;;;;;;3.25;2.00;;;18.30;33.20;20.80;94649.00;;;;10428055;28;46324;-63
2022/03/25 11:21:21;;;;;;;3.45;2.10;;;18.30;33.30;20.90;94660.00;;;;10426203;28;48067;-64
2022/03/25 11:26:25;;;;;;;4.40;2.17;;;18.40;32.60;20.90;94664.00;;;;10409486;28;47192;-63
2022/03/25 11:31:26;;;;;;;3.08;2.00;;;18.40;32.50;20.90;94646.00;;;;10449544;28;46553;-64
2022/03/25 11:36:26;;;;;;;3.50;1.80;;;18.40;32.20;20.90;94657.00;;;;10419923;28;45200;-63
2022/03/25 11:41:27;;;;;;;2.72;1.90;;;18.40;32.20;20.80;94651.00;;;;10418734;28;45348;-63
2022/03/25 11:46:28;;;;;;;4.28;2.00;;;18.40;32.20;20.90;94623.00;;;;10425419;28;45292;-64
2022/03/25 11:51:33;;;;;;;4.28;2.00;;;18.40;32.20;20.90;94624.00;;;;10428281;28;47199;-64
2022/03/25 11:56:48;;;;;;;3.42;1.80;;;18.40;32.40;20.90;94624.00;;;;10441886;28;46454;-63
2022/03/25 12:01:49;;;;;;;2.35;1.60;;;18.40;32.40;20.90;94624.00;;;;10438568;28;46440;-64
2022/03/25 12:07:02;;;;;;;3.17;1.80;;;18.40;31.90;20.90;94630.00;;;;10417964;28;46122;-63
2022/03/25 12:12:03;;;;;;;3.90;2.00;;;18.40;31.90;20.90;94606.00;;;;10431969;28;47063;-63
2022/03/25 12:17:09;;;;;;;2.65;1.80;;;18.40;31.90;20.90;94614.00;;;;10441525;28;46918;-63
2022/03/25 12:22:21;;;;;;;3.50;2.08;;;18.40;31.90;20.90;94610.00;;;;10441503;28;46689;-63
2022/03/25 12:27:23;;;;;;;3.20;1.90;;;18.40;31.90;20.80;94605.00;;;;10414776;28;45432;-64
2022/03/25 12:32:31;;;;;;;2.95;1.58;;;18.40;31.70;20.90;94595.00;;;;10417080;28;47034;-64
2022/03/25 12:37:38;;;;;;;2.20;1.58;;;18.40;31.60;20.90;94602.00;;;;10403964;28;46360;-64
2022/03/25 12:42:41;;;;;;;2.95;1.73;;;18.40;31.40;20.90;94582.00;;;;10419412;28;45104;-64
2022/03/25 12:47:46;;;;;;;2.65;1.80;;;18.40;31.30;20.90;94585.00;;;;10424483;28;46430;-64
2022/03/25 12:52:56;;;;;;;3.40;1.80;;;18.40;31.30;20.90;94574.00;;;;10427932;28;46842;-63
2022/03/25 12:58:11;;;;;;;2.72;1.55;;;18.40;31.20;20.90;94574.00;;;;10430948;28;45574;-63
2022/03/25 13:03:14;;;;;;;2.70;1.90;;;18.40;31.20;20.90;94567.00;;;;10415115;28;48267;-63
2022/03/25 13:08:17;;;;;;;2.88;1.70;;;18.40;31.10;20.90;94561.00;;;;10439798;28;45164;-63
2022/03/25 13:13:18;;;;;;;2.53;1.67;;;18.40;31.10;20.90;94559.00;;;;10417515;28;45571;-64
2022/03/25 13:18:18;;;;;;;2.80;1.70;;;18.50;31.10;20.90;94560.00;;;;10425203;28;45436;-63
2022/03/25 13:23:22;;;;;;;1.77;1.30;;;18.40;31.10;21.00;94545.00;;;;10425560;28;45556;-64
2022/03/25 13:28:36;;;;;;;2.08;1.50;;;18.50;31.20;21.00;94547.00;;;;10425252;28;47031;-63
2022/03/25 13:33:55;;;;;;;2.13;1.40;;;18.50;31.00;21.00;94530.00;;;;10432506;28;45236;-63
2022/03/25 13:39:10;;;;;;;3.78;1.80;;;18.50;30.90;21.00;94545.00;;;;10407275;28;47331;-63
2022/03/25 13:44:12;;;;;;;2.22;1.55;;;18.50;30.80;21.00;94538.00;;;;10430566;28;45504;-63
2022/03/25 13:49:17;;;;;;;2.70;1.60;;;18.50;30.70;21.00;94534.00;;;;10422529;28;45224;-63
2022/03/25 13:54:26;;;;;;;3.30;1.60;;;18.60;30.60;21.00;94522.00;;;;10428678;28;45387;-64
2022/03/25 13:59:41;;;;;;;3.08;1.40;;;18.50;30.60;21.00;94533.00;;;;10404782;28;47049;-64
2022/03/25 14:04:41;;;;;;;2.97;1.70;;;18.50;30.60;20.90;94529.00;;;;10413511;28;45555;-64
2022/03/25 14:09:42;;;;;;;2.90;1.63;;;18.50;30.10;21.00;94533.00;;;;10425759;28;47111;-63
2022/03/25 14:14:50;;;;;;;3.38;1.60;;;18.50;30.20;21.00;94523.00;;;;10425009;28;48035;-63
2022/03/25 14:20:15;;;;;;;3.50;1.42;;;18.50;30.10;21.00;94516.00;;;;10408984;28;45492;-64
2022/03/25 14:25:19;;;;;;;2.72;1.60;;;18.50;30.10;21.00;94499.00;;;;10428236;28;45293;-64
2022/03/25 14:30:22;;;;;;;2.45;1.65;;;18.50;30.10;21.00;94505.00;;;;10435288;28;45321;-64
2022/03/25 14:35:22;;;;;;;2.55;1.80;;;18.50;30.00;20.90;94508.00;;;;10413730;28;45560;-63
2022/03/25 14:40:25;;;;;;;2.88;1.98;;;18.50;30.00;20.90;94487.00;;;;10402722;28;47805;-64
2022/03/25 14:45:27;;;;;;;2.50;1.67;;;18.50;29.80;20.90;94490.00;;;;10434874;28;45239;-63
2022/03/25 14:50:28;;;;;;;2.78;1.70;;;18.50;29.80;20.90;94468.00;;;;10410481;28;47200;-63
2022/03/25 14:55:29;;;;;;;2.70;1.77;;;18.50;29.80;21.00;94478.00;;;;10418745;28;45577;-64
2022/03/25 15:00:30;;;;;;;2.15;1.55;;;18.50;29.80;20.90;94489.00;;;;10421969;28;46963;-63
2022/03/25 15:05:31;;;;;;;2.17;1.40;;;18.50;30.00;20.90;94490.00;;;;10427868;28;47272;-63
2022/03/25 15:10:32;;;;;;;1.88;1.50;;;18.50;30.00;20.90;94476.00;;;;10425982;28;47917;-63
2022/03/25 15:15:33;;;;;;;2.05;1.38;;;18.50;30.00;20.90;94478.00;;;;10416777;28;45268;-64
2022/03/25 15:20:34;;;;;;;2.30;1.40;;;18.50;30.00;20.90;94479.00;;;;10414144;28;47201;-64
2022/03/25 15:25:36;;;;;;;3.00;1.58;;;18.50;30.00;21.00;94470.00;;;;10434201;28;46569;-63
2022/03/25 15:35:58;;;;;;;2.10;1.40;;;18.50;29.90;21.00;94479.00;;;;10430988;28;45269;-63
2022/03/25 15:40:59;;;;;;;2.35;1.30;;;18.50;29.90;21.00;94475.00;;;;10431800;28;45522;-63
2022/03/25 15:46:00;;;;;;;1.92;1.40;;;18.50;30.00;21.00;94472.00;;;;10422046;28;47133;-63
2022/03/25 15:51:02;;;;;;;2.20;1.27;;;18.50;30.00;21.00;94455.00;;;;10418593;28;45196;-63
2022/03/25 15:56:04;;;;;;;2.47;1.17;;;18.50;30.10;21.00;94463.00;;;;10425569;28;46379;-64
2022/03/25 16:01:07;;;;;;;2.10;1.48;;;18.50;30.00;21.00;94464.00;;;;10407693;28;45408;-63
2022/03/25 16:06:07;;;;;;;1.65;1.20;;;18.50;30.00;21.00;94461.00;;;;10404701;28;47466;-63
2022/03/25 16:11:09;;;;;;;2.47;1.42;;;18.50;30.00;21.00;94457.00;;;;10421487;28;45273;-66
2022/03/25 16:16:10;;;;;;;1.98;1.50;;;18.50;29.80;21.00;94464.00;;;;10427645;28;48840;-65
2022/03/25 16:21:10;;;;;;;2.60;1.52;;;18.50;29.80;21.00;94472.00;;;;10420644;28;47398;-65
2022/03/25 16:26:12;;;;;;;2.00;1.38;;;18.60;29.70;21.00;94469.00;;;;10414752;28;46872;-65
2022/03/25 16:31:12;;;;;;;1.83;1.30;;;18.60;29.70;21.00;94459.00;;;;10423465;28;47102;-66
2022/03/25 16:36:13;;;;;;;2.53;1.40;;;18.60;29.70;21.00;94480.00;;;;10430551;28;47039;-66
2022/03/25 16:41:17;;;;;;;1.85;1.30;;;18.60;29.90;21.00;94481.00;;;;10422385;28;47031;-65
2022/03/25 16:46:18;;;;;;;2.30;1.65;;;18.60;29.90;21.00;94461.00;;;;10432892;28;47188;-66
2022/03/25 16:51:18;;;;;;;1.85;1.40;;;18.60;29.90;21.00;94475.00;;;;10410481;28;47199;-64
2022/03/25 16:56:19;;;;;;;2.00;1.60;;;18.50;30.00;21.00;94489.00;;;;10419249;28;45376;-64
2022/03/25 17:01:20;;;;;;;2.65;1.70;;;18.50;30.00;20.90;94475.00;;;;10423163;28;46721;-69
2022/03/25 17:06:23;;;;;;;2.80;1.75;;;18.50;30.10;21.00;94483.00;;;;10432096;28;45419;-64
2022/03/25 17:11:23;;;;;;;3.03;1.70;;;18.50;29.90;21.00;94475.00;;;;10427818;28;45273;-69
2022/03/25 17:16:24;;;;;;;2.90;1.65;;;18.50;29.80;21.00;94491.00;;;;10439037;28;45211;-65
2022/03/25 17:21:25;;;;;;;3.15;2.10;;;18.50;29.70;20.90;94498.00;;;;10455185;28;45305;-64
2022/03/25 17:26:26;;;;;;;3.25;2.05;;;18.50;29.40;20.90;94502.00;;;;10437983;28;47402;-65
2022/03/25 17:31:27;;;;;;;3.97;2.13;;;18.40;29.40;20.90;94502.00;;;;10440135;28;45546;-68
2022/03/25 17:36:29;;;;;;;4.50;1.88;;;18.40;29.60;20.90;94506.00;;;;10438620;28;45534;-63
2022/03/25 17:41:30;;;;;;;2.97;2.10;;;18.40;29.40;20.80;94508.00;;;;10395245;28;47180;-63
2022/03/25 17:46:31;;;;;;;3.55;2.47;;;18.30;29.20;20.80;94507.00;;;;10406863;28;46486;-63
2022/03/25 17:51:32;;;;;;;3.28;2.40;;;18.30;29.10;20.80;94522.00;;;;10451377;28;45404;-64
2022/03/25 17:56:33;;;;;;;3.95;2.30;;;18.30;29.10;20.80;94526.00;;;;10437825;28;47080;-64
2022/03/25 18:01:34;;;;;;;4.60;2.90;;;18.30;29.00;20.70;94533.00;;;;10437541;28;46256;-63
2022/03/25 18:06:35;;;;;;;5.78;3.00;;;18.30;28.90;20.70;94513.00;;;;10420263;28;48260;-64
2022/03/25 18:11:35;;;;;;;5.22;2.70;;;18.30;28.80;20.70;94533.00;;;;10438621;28;45434;-64
2022/03/25 18:16:36;;;;;;;5.00;2.83;;;18.20;28.70;20.80;94532.00;;;;10414673;28;45316;-64
2022/03/25 18:21:37;;;;;;;4.13;2.55;;;18.30;28.80;20.70;94537.00;;;;10395543;28;45185;-64
2022/03/25 18:26:37;;;;;;;4.45;2.90;;;18.30;28.70;20.70;94538.00;;;;10382067;28;47338;-64
2022/03/25 18:31:42;;;;;;;4.70;2.97;;;18.20;28.50;20.70;94556.00;;;;10435933;28;47508;-64
2022/03/25 18:36:42;;;;;;;3.90;2.65;;;18.20;28.50;20.70;94563.00;;;;10419118;28;46989;-64
2022/03/25 18:41:46;;;;;;;4.03;2.90;;;18.20;28.60;20.70;94558.00;;;;10436441;28;46473;-64
2022/03/25 18:46:47;;;;;;;4.40;2.72;;;18.10;28.40;20.60;94551.00;;;;10435737;28;45320;-64
2022/03/25 18:51:48;;;;;;;4.43;2.95;;;18.20;28.40;20.60;94577.00;;;;10423300;28;45455;-64
2022/03/25 18:56:49;;;;;;;5.03;2.90;;;18.20;28.30;20.60;94557.00;;;;10452033;28;47656;-65
2022/03/25 19:01:50;;;;;;;4.63;3.13;;;18.10;28.20;20.60;94564.00;;;;10417609;28;48294;-64
2022/03/25 19:06:51;;;;;;;4.50;3.00;;;18.10;28.10;20.60;94565.00;;;;10451115;28;47190;-64
2022/03/25 19:11:53;;;;;;;4.65;2.88;;;18.10;28.20;20.60;94572.00;;;;10435386;28;45540;-64
2022/03/25 19:16:54;;;;;;;4.60;2.95;;;18.10;28.10;20.60;94571.00;;;;10438921;28;45451;-64
2022/03/25 19:21:55;;;;;;;3.53;2.55;;;18.10;28.10;20.60;94581.00;;;;10395104;28;45408;-64
2022/03/25 19:26:56;;;;;;;4.68;2.97;;;18.10;28.00;20.60;94582.00;;;;10393039;28;45177;-65
2022/03/25 19:31:56;;;;;;;4.25;3.20;;;18.10;28.10;20.50;94585.00;;;;10393690;28;45252;-65
2022/03/25 19:36:57;;;;;;;4.18;2.95;;;18.00;28.00;20.60;94587.00;;;;10392747;28;46511;-64
2022/03/25 19:41:58;;;;;;;4.15;3.15;;;18.10;28.20;20.60;94596.00;;;;10393245;28;45314;-64
2022/03/25 19:46:59;;;;;;;5.97;3.22;;;18.10;28.00;20.60;94590.00;;;;10392449;28;45156;-64
2022/03/25 19:52:01;;;;;;;7.82;3.28;;;18.10;28.00;20.60;94595.00;;;;10392845;28;45355;-64
2022/03/25 19:57:02;;;;;;;5.70;3.78;;;18.10;27.80;20.50;94594.00;;;;10410964;28;47347;-64
2022/03/25 20:02:03;;;;;;;6.20;3.42;;;18.10;28.00;20.50;94595.00;;;;10399977;28;47103;-64
2022/03/25 20:07:05;;;;;;;5.45;3.25;;;18.10;27.70;20.50;94600.00;;;;10399036;28;48333;-64
2022/03/25 20:12:10;;;;;;;5.28;3.75;;;18.00;27.80;20.50;94598.00;;;;10399484;28;48097;-64
2022/03/25 20:17:11;;;;;;;6.90;3.85;;;18.00;27.90;20.50;94601.00;;;;10399181;28;47242;-64
2022/03/25 20:22:13;;;;;;;5.78;3.60;;;18.00;27.70;20.50;94592.00;;;;10399218;28;46994;-64
2022/03/25 20:27:14;;;;;;;6.28;3.95;;;18.00;27.60;20.50;94605.00;;;;10398282;28;46376;-64
2022/03/25 20:32:16;;;;;;;6.03;4.07;;;18.00;27.70;20.50;94590.00;;;;10399098;28;48060;-64
2022/03/25 20:37:17;;;;;;;6.97;3.78;;;18.00;27.50;20.50;94612.00;;;;10416568;22;48206;-67
2022/03/25 20:42:17;;;;;;;5.75;3.92;;;18.00;27.60;20.50;94602.00;;;;10358504;28;45160;-67
2022/03/25 20:47:18;;;;;;;5.85;3.60;;;18.00;27.50;20.50;94608.00;;;;10358961;28;45550;-68
2022/03/25 20:52:18;;;;;;;5.57;3.75;;;18.00;27.60;20.50;94606.00;;;;10357680;28;47120;-67
2022/03/25 20:57:19;;;;;;;5.55;3.85;;;18.00;27.70;20.50;94624.00;;;;10372836;28;47007;-67
2022/03/25 21:02:20;;;;;;;6.05;3.90;;;18.00;27.60;20.50;94628.00;;;;10357552;28;47997;-67
2022/03/25 21:07:21;;;;;;;6.57;4.00;;;18.00;27.50;20.50;94620.00;;;;10356434;28;45238;-68
2022/03/25 21:12:21;;;;;;;6.15;4.22;;;18.00;27.50;20.40;94629.00;;;;10356839;28;47306;-67
2022/03/25 21:17:22;;;;;;;6.93;4.10;;;18.00;27.40;20.40;94624.00;;;;10356805;28;47048;-67
2022/03/25 21:22:26;;;;;;;6.78;3.95;;;18.00;27.40;20.40;94620.00;;;;10357961;28;45355;-68
2022/03/25 21:27:26;;;;;;;6.50;4.22;;;17.90;27.30;20.40;94616.00;;;;10371028;28;47077;-68
2022/03/25 21:32:32;;;;;;;7.65;4.28;;;18.00;27.30;20.30;94626.00;;;;10357567;28;46435;-67
2022/03/25 21:37:33;;;;;;;5.83;4.33;;;17.90;27.20;20.30;94616.00;;;;10371872;28;47640;-67
2022/03/25 21:42:35;;;;;;;6.45;4.00;;;17.90;27.30;20.30;94637.00;;;;10372071;28;46843;-68
2022/03/25 21:47:36;;;;;;;6.85;4.22;;;17.80;27.20;20.30;94629.00;;;;10352666;28;46192;-68
2022/03/25 21:52:38;;;;;;;6.50;4.45;;;17.80;27.40;20.30;94639.00;;;;10361499;28;47019;-67
2022/03/25 21:57:39;;;;;;;6.30;4.35;;;17.80;27.40;20.20;94637.00;;;;10354955;28;45389;-68
2022/03/25 22:02:40;;;;;;;6.80;4.20;;;17.70;27.40;20.20;94643.00;;;;10339286;28;46976;-67
2022/03/25 22:07:40;;;;;;;7.10;4.30;;;17.70;27.40;20.20;94644.00;;;;10337615;28;48347;-68
2022/03/25 22:12:46;;;;;;;7.68;4.50;;;17.70;27.40;20.20;94631.00;;;;10338812;28;48244;-68
2022/03/25 22:17:47;;;;;;;7.00;4.40;;;17.70;27.40;20.20;94640.00;;;;10371247;28;47411;-67
2022/03/25 22:22:47;;;;;;;8.55;4.35;;;17.60;27.50;20.10;94643.00;;;;10353923;28;45348;-67